createdAt,value
2023-05-09T00:02:17.270Z,5.00
2023-05-09T00:04:44.280Z,5.50
2023-05-09T00:07:11.204Z,5.20
2023-05-09T00:09:37.989Z,5.00
2023-05-09T00:12:05.142Z,4.90
2023-05-09T00:14:33.677Z,5.40
2023-05-09T00:17:01.258Z,5.30
2023-05-09T00:19:28.066Z,5.20
2023-05-09T00:21:54.848Z,5.50
2023-05-09T00:24:21.660Z,5.10
2023-05-09T00:26:48.392Z,5.30
2023-05-09T00:29:15.264Z,5.60
2023-05-09T00:31:42.057Z,5.10
2023-05-09T00:34:08.792Z,5.10
2023-05-09T00:36:35.588Z,5.00
2023-05-09T00:39:02.319Z,4.90
2023-05-09T00:41:29.089Z,5.20
2023-05-09T00:43:55.866Z,4.80
2023-05-09T00:46:23.012Z,4.90
2023-05-09T00:48:50.443Z,5.40
2023-05-09T00:51:17.346Z,5.30
2023-05-09T00:53:45.758Z,5.40
2023-05-09T00:56:13.223Z,4.90
2023-05-09T00:58:40.216Z,4.90
2023-05-09T01:01:07.102Z,4.90
2023-05-09T01:03:35.072Z,5.50
2023-05-09T01:06:04.251Z,4.90
2023-05-09T01:08:47.295Z,4.70
2023-05-09T01:11:34.462Z,4.60
2023-05-09T01:14:15.805Z,5.00
2023-05-09T01:16:55.169Z,5.10
2023-05-09T01:19:49.099Z,5.00
2023-05-09T01:22:16.656Z,5.20
2023-05-09T01:24:57.420Z,5.00
2023-05-09T01:27:45.328Z,5.30
2023-05-09T01:30:13.998Z,4.60
2023-05-09T01:32:43.442Z,4.90
2023-05-09T01:35:14.840Z,4.70
2023-05-09T01:37:44.821Z,4.60
2023-05-09T01:40:15.659Z,4.90
2023-05-09T01:42:51.434Z,5.40
2023-05-09T01:45:20.116Z,5.10
2023-05-09T01:47:49.164Z,6.10
2023-05-09T01:50:18.824Z,4.70
2023-05-09T01:52:49.054Z,4.70
2023-05-09T01:55:18.073Z,5.40
2023-05-09T01:57:45.836Z,5.30
2023-05-09T02:00:15.230Z,4.30
2023-05-09T02:02:43.376Z,4.70
2023-05-09T02:05:12.313Z,5.20
2023-05-09T02:07:42.185Z,5.50
2023-05-09T02:10:11.014Z,4.90
2023-05-09T02:12:39.081Z,5.10
2023-05-09T02:15:07.467Z,5.10
2023-05-09T02:17:34.276Z,4.80
2023-05-09T02:20:01.171Z,4.90
2023-05-09T02:22:28.418Z,5.40
2023-05-09T02:24:55.408Z,5.60
2023-05-09T02:27:22.704Z,5.60
2023-05-09T02:29:55.948Z,4.90
2023-05-09T02:32:25.946Z,5.20
2023-05-09T02:34:54.341Z,5.50
2023-05-09T02:37:21.956Z,5.10
2023-05-09T02:39:48.776Z,5.20
2023-05-09T02:42:22.779Z,4.90
2023-05-09T02:44:49.555Z,5.50
2023-05-09T02:47:16.297Z,5.40
2023-05-09T02:49:43.132Z,5.80
2023-05-09T02:52:11.235Z,5.60
2023-05-09T02:54:38.652Z,5.00
2023-05-09T02:57:05.841Z,6.60
2023-05-09T02:59:32.992Z,5.60
2023-05-09T03:01:59.738Z,5.30
2023-05-09T03:04:27.996Z,5.70
2023-05-09T03:06:54.884Z,5.30
2023-05-09T03:09:21.596Z,5.10
2023-05-09T03:11:48.313Z,5.30
2023-05-09T03:14:15.596Z,5.10
2023-05-09T03:16:42.324Z,5.40
2023-05-09T03:19:09.100Z,5.40
2023-05-09T03:21:36.045Z,5.20
2023-05-09T03:24:04.752Z,5.40
2023-05-09T03:26:31.510Z,5.10
2023-05-09T03:28:58.826Z,5.20
2023-05-09T03:31:25.569Z,5.00
2023-05-09T03:33:52.338Z,4.10
2023-05-09T03:36:19.178Z,5.70
2023-05-09T03:38:45.953Z,5.30
2023-05-09T03:41:16.297Z,5.50
2023-05-09T03:43:43.190Z,5.90
2023-05-09T03:46:09.959Z,5.50
2023-05-09T03:48:36.793Z,5.20
2023-05-09T03:51:03.733Z,5.70
2023-05-09T03:53:30.614Z,5.70
2023-05-09T03:55:57.391Z,5.40
2023-05-09T03:58:24.144Z,5.00
2023-05-09T04:00:50.889Z,5.60
2023-05-09T04:03:17.740Z,5.50
2023-05-09T04:05:44.628Z,4.80
2023-05-09T04:08:11.386Z,5.30
2023-05-09T04:10:38.212Z,7.50
2023-05-09T04:13:05.198Z,5.80
2023-05-09T04:15:32.067Z,7.10
2023-05-09T04:17:58.967Z,7.80
2023-05-09T04:20:26.134Z,5.80
2023-05-09T04:22:52.891Z,6.60
2023-05-09T04:25:20.335Z,7.80
2023-05-09T04:27:47.350Z,8.70
2023-05-09T04:30:14.495Z,8.20
2023-05-09T04:32:45.895Z,7.60
2023-05-09T04:35:14.325Z,8.30
2023-05-09T04:37:42.023Z,7.70
2023-05-09T04:40:09.538Z,9.00
2023-05-09T04:42:37.776Z,7.60
2023-05-09T04:45:05.798Z,7.20
2023-05-09T04:47:32.741Z,7.60
2023-05-09T04:49:59.602Z,8.00
2023-05-09T04:52:26.396Z,8.20
2023-05-09T04:54:53.196Z,7.80
2023-05-09T04:57:19.971Z,8.80
2023-05-09T04:59:46.849Z,8.10
2023-05-09T05:02:13.777Z,8.30
2023-05-09T05:04:41.058Z,7.80
2023-05-09T05:07:07.835Z,7.70
2023-05-09T05:09:34.637Z,8.90
2023-05-09T05:12:03.672Z,8.00
2023-05-09T05:14:31.710Z,8.10
2023-05-09T05:16:59.099Z,7.80
2023-05-09T05:19:26.130Z,8.00
2023-05-09T05:21:52.910Z,7.40
2023-05-09T05:24:19.687Z,7.80
2023-05-09T05:26:46.527Z,8.10
2023-05-09T05:29:13.272Z,7.50
2023-05-09T05:31:40.037Z,7.50
2023-05-09T05:34:06.841Z,7.30
2023-05-09T05:36:33.604Z,7.30
2023-05-09T05:39:00.296Z,7.20
2023-05-09T05:41:27.213Z,7.10
2023-05-09T05:43:54.583Z,7.30
2023-05-09T05:46:21.537Z,6.90
2023-05-09T05:48:48.653Z,7.30
2023-05-09T05:51:15.403Z,7.60
2023-05-09T05:53:42.591Z,7.10
2023-05-09T05:56:09.753Z,6.70
2023-05-09T05:58:36.498Z,6.40
2023-05-09T06:01:03.309Z,7.00
2023-05-09T06:03:30.144Z,6.80
2023-05-09T06:05:57.504Z,7.70
2023-05-09T06:08:24.206Z,6.80
2023-05-09T06:10:51.093Z,7.00
2023-05-09T06:13:18.102Z,7.20
2023-05-09T06:15:45.043Z,7.90
2023-05-09T06:18:11.989Z,7.60
2023-05-09T06:20:38.896Z,8.10
2023-05-09T06:23:05.897Z,8.00
2023-05-09T06:25:32.943Z,7.90
2023-05-09T06:27:59.937Z,7.50
2023-05-09T06:30:27.296Z,8.10
2023-05-09T06:32:58.618Z,8.40
2023-05-09T06:35:25.555Z,8.40
2023-05-09T06:37:52.454Z,8.50
2023-05-09T06:40:19.600Z,8.40
2023-05-09T06:42:46.421Z,6.90
2023-05-09T06:45:13.714Z,7.50
2023-05-09T06:47:40.945Z,8.30
2023-05-09T06:50:08.775Z,7.90
2023-05-09T06:52:36.234Z,7.10
2023-05-09T06:55:04.462Z,6.70
2023-05-09T06:57:31.841Z,7.20
2023-05-09T06:59:58.741Z,6.50
2023-05-09T07:02:25.974Z,6.40
2023-05-09T07:04:53.124Z,7.30
2023-05-09T07:07:20.036Z,7.30
2023-05-09T07:09:48.088Z,6.70
2023-05-09T07:12:16.540Z,6.20
2023-05-09T07:14:43.260Z,6.80
2023-05-09T07:17:21.781Z,7.10
2023-05-09T07:19:49.475Z,6.30
2023-05-09T07:22:16.580Z,6.60
2023-05-09T07:24:44.777Z,7.00
2023-05-09T07:27:11.728Z,7.40
2023-05-09T07:29:39.025Z,7.00
2023-05-09T07:32:06.438Z,6.20
2023-05-09T07:34:33.403Z,6.70
2023-05-09T07:37:00.590Z,5.40
2023-05-09T07:39:27.582Z,6.40
2023-05-09T07:41:54.651Z,6.10
2023-05-09T07:44:21.680Z,6.50
2023-05-09T07:46:48.884Z,5.90
2023-05-09T07:49:15.681Z,6.40
2023-05-09T07:51:42.603Z,5.70
2023-05-09T07:54:10.888Z,5.50
2023-05-09T07:56:37.630Z,6.20
2023-05-09T07:59:04.412Z,6.00
2023-05-09T08:01:31.781Z,5.90
2023-05-09T08:03:58.850Z,5.80
2023-05-09T08:06:26.724Z,5.80
2023-05-09T08:08:53.751Z,5.00
2023-05-09T08:11:20.575Z,5.50
2023-05-09T08:13:48.508Z,5.50
2023-05-09T08:16:17.693Z,5.20
2023-05-09T08:18:45.372Z,4.90
2023-05-09T08:21:12.560Z,4.80
2023-05-09T08:23:40.887Z,5.40
2023-05-09T08:26:07.611Z,5.30
2023-05-09T08:28:34.495Z,6.40
2023-05-09T08:31:01.445Z,4.70
2023-05-09T08:33:28.494Z,5.10
2023-05-09T08:35:56.619Z,4.70
2023-05-09T08:38:24.622Z,5.00
2023-05-09T08:40:51.568Z,4.90
2023-05-09T08:43:20.491Z,5.10
2023-05-09T08:45:51.527Z,4.90
2023-05-09T08:48:19.419Z,4.70
2023-05-09T08:50:46.353Z,5.00
2023-05-09T08:53:14.548Z,4.50
2023-05-09T08:55:41.791Z,4.80
2023-05-09T08:58:10.286Z,4.70
2023-05-09T09:00:40.768Z,4.10
2023-05-09T09:03:08.208Z,4.90
2023-05-09T09:05:41.470Z,4.40
2023-05-09T09:08:10.375Z,4.50
2023-05-09T09:10:42.636Z,4.40
2023-05-09T09:13:11.689Z,3.80
2023-05-09T09:15:40.909Z,4.80
2023-05-09T09:18:17.096Z,4.40
2023-05-09T09:20:48.672Z,5.00
2023-05-09T09:23:20.597Z,4.50
2023-05-09T09:25:48.343Z,4.10
2023-05-09T09:28:15.734Z,3.90
2023-05-09T09:30:48.294Z,4.10
2023-05-09T09:33:26.881Z,4.30
2023-05-09T09:35:56.481Z,4.20
2023-05-09T09:40:58.948Z,4.50
2023-05-09T09:43:30.307Z,4.20
2023-05-09T09:46:01.149Z,4.30
2023-05-09T09:48:33.849Z,4.40
2023-05-09T09:51:11.534Z,4.20
2023-05-09T09:53:42.581Z,3.90
2023-05-09T09:56:10.059Z,3.90
2023-05-09T09:58:37.755Z,3.70
2023-05-09T10:01:14.274Z,3.30
2023-05-09T10:03:46.849Z,3.70
2023-05-09T10:06:16.957Z,3.50
2023-05-09T10:08:49.115Z,3.90
2023-05-09T10:11:16.522Z,3.80
2023-05-09T10:13:44.924Z,3.40
2023-05-09T10:16:12.577Z,3.70
2023-05-09T10:18:42.932Z,3.80
2023-05-09T10:21:15.320Z,4.10
2023-05-09T10:23:47.132Z,4.20
2023-05-09T10:26:23.217Z,4.00
2023-05-09T10:28:54.571Z,3.90
2023-05-09T10:31:29.910Z,4.00
2023-05-09T10:33:57.402Z,3.80
2023-05-09T10:36:25.059Z,3.40
2023-05-09T10:38:55.036Z,3.50
2023-05-09T10:41:22.744Z,3.30
2023-05-09T10:43:49.834Z,3.40
2023-05-09T10:46:18.075Z,3.10
2023-05-09T10:48:45.626Z,3.50
2023-05-09T10:51:13.370Z,3.70
2023-05-09T10:53:48.028Z,3.00
2023-05-09T10:56:40.006Z,4.00
2023-05-09T10:59:06.930Z,3.80
2023-05-09T11:01:39.809Z,3.40
2023-05-09T11:04:12.961Z,3.30
2023-05-09T11:06:47.667Z,4.10
2023-05-09T11:09:35.892Z,3.30
2023-05-09T11:12:05.503Z,3.30
